Time;durP1;ratioP1;P1;durP2;ratioP2;P2;SDS_P1;SDS_P2;PMS_P1;PMS_P2;Temp;Humidity;BMP_temperature;BMP_pressure;BME280_temperature;BME280_humidity;BME280_pressure;Samples;Min_cycle;Max_cycle;Signal;HPM_P1;HPM_P2
2022/02/09 00:00:56;;;;;;;0.10;0.10;;;8.00;99.90;;;;;;5053850;28;20033;-63
2022/02/09 00:03:25;;;;;;;0.00;0.00;;;8.00;99.90;;;;;;5053627;28;20041;-64
2022/02/09 00:08:21;;;;;;;0.10;0.10;;;7.90;99.90;;;;;;5053649;28;20044;-65
2022/02/09 00:10:49;;;;;;;0.10;0.10;;;7.90;99.90;;;;;;5068835;28;20044;-64
2022/02/09 00:23:52;;;;;;;0.00;0.00;;;7.90;99.90;;;;;;5053094;28;20111;-64
2022/02/09 00:29:34;;;;;;;0.00;0.00;;;7.80;99.90;;;;;;5053264;28;20106;-64
2022/02/09 01:12:25;;;;;;;0.10;0.10;;;7.80;99.90;;;;;;5065433;28;20065;-64
2022/02/09 01:33:09;;;;;;;0.35;0.35;;;7.80;99.90;;;;;;5052085;28;20136;-64
2022/02/09 01:43:35;;;;;;;0.00;0.00;;;7.70;99.90;;;;;;5052246;28;20204;-64
2022/02/09 01:55:52;;;;;;;0.85;0.85;;;7.70;99.90;;;;;;5051528;28;20536;-63
2022/02/09 01:58:21;;;;;;;0.00;0.00;;;7.70;99.90;;;;;;5050364;28;20112;-64
2022/02/09 02:00:48;;;;;;;1.55;1.17;;;7.70;99.90;;;;;;5051522;28;20028;-63
2022/02/09 02:03:14;;;;;;;0.00;0.00;;;7.70;99.90;;;;;;5066979;28;20045;-63
2022/02/09 02:05:40;;;;;;;0.10;0.10;;;7.70;99.90;;;;;;5051418;28;20037;-64
2022/02/09 02:08:09;;;;;;;0.80;0.75;;;7.70;99.90;;;;;;5051639;28;20681;-64
2022/02/09 02:18:08;;;;;;;0.10;0.10;;;7.70;99.90;;;;;;5066450;28;20482;-64
2022/02/09 02:20:46;;;;;;;0.00;0.00;;;7.70;99.90;;;;;;5051244;28;20082;-64
2022/02/09 02:23:38;;;;;;;0.10;0.10;;;7.60;99.90;;;;;;5051734;28;20414;-65
2022/02/09 02:28:47;;;;;;;0.00;0.00;;;7.70;99.90;;;;;;5051087;28;20037;-64
2022/02/09 02:31:49;;;;;;;0.10;0.10;;;7.70;99.90;;;;;;5050140;28;20029;-63
2022/02/09 02:35:01;;;;;;;0.10;0.10;;;7.70;99.90;;;;;;5051350;28;20081;-63
2022/02/09 03:09:12;;;;;;;0.10;0.10;;;7.50;99.90;;;;;;5055003;28;20479;-64
2022/02/09 03:14:33;;;;;;;0.00;0.00;;;7.50;99.90;;;;;;5054574;28;20094;-64
2022/02/09 03:17:04;;;;;;;0.10;0.10;;;7.50;99.90;;;;;;5036716;28;20048;-64
2022/02/09 03:56:29;;;;;;;0.08;0.08;;;7.50;99.90;;;;;;5052634;28;20045;-64
2022/02/09 03:58:55;;;;;;;1.50;1.40;;;7.50;99.90;;;;;;5068990;28;20029;-65
2022/02/09 04:01:23;;;;;;;0.00;0.00;;;7.50;99.90;;;;;;5069367;28;20044;-63
2022/02/09 04:03:49;;;;;;;0.00;0.00;;;7.50;99.90;;;;;;5068527;28;20025;-64
2022/02/09 04:06:15;;;;;;;0.10;0.10;;;7.40;99.90;;;;;;5053393;28;20029;-63
2022/02/09 04:08:49;;;;;;;0.10;0.10;;;7.40;99.90;;;;;;5053259;28;20029;-63
2022/02/09 04:11:24;;;;;;;0.25;0.22;;;7.40;99.90;;;;;;5053751;28;20044;-63
2022/02/09 04:16:33;;;;;;;0.00;0.00;;;7.50;99.90;;;;;;5053662;28;20033;-64
2022/02/09 05:28:15;;;;;;;0.00;0.00;;;7.50;99.90;;;;;;5041665;28;20030;-65
2022/02/09 05:30:52;;;;;;;0.00;0.00;;;7.50;99.90;;;;;;5057609;28;20104;-63
2022/02/09 05:33:18;;;;;;;0.00;0.00;;;7.60;99.90;;;;;;5066951;28;20090;-64
2022/02/09 05:35:44;;;;;;;0.00;0.00;;;7.60;99.90;;;;;;5067052;28;20057;-64
2022/02/09 05:38:13;;;;;;;0.80;0.80;;;7.60;99.90;;;;;;5050603;28;20031;-64
2022/02/09 05:40:41;;;;;;;0.00;0.00;;;7.60;99.90;;;;;;5051930;28;20040;-65
2022/02/09 05:43:09;;;;;;;0.20;0.20;;;7.60;99.90;;;;;;5051543;28;20124;-66
2022/02/09 05:56:37;;;;;;;1.58;1.48;;;7.70;99.90;;;;;;5046842;28;20043;-64
2022/02/09 05:59:28;;;;;;;0.00;0.00;;;7.70;99.90;;;;;;5050540;28;20029;-63
2022/02/09 06:01:56;;;;;;;0.00;0.00;;;7.70;99.90;;;;;;5066998;28;20036;-64
2022/02/09 06:04:22;;;;;;;0.10;0.10;;;7.70;99.90;;;;;;5067000;28;20036;-63
2022/02/09 06:06:48;;;;;;;0.20;0.20;;;7.80;99.90;;;;;;5066621;28;20040;-63
2022/02/09 06:09:13;;;;;;;0.00;0.00;;;7.80;99.90;;;;;;5051647;28;20029;-63
2022/02/09 06:22:03;;;;;;;0.03;0.03;;;7.80;99.90;;;;;;5071121;28;20135;-64
2022/02/09 06:24:30;;;;;;;0.32;0.32;;;7.80;99.90;;;;;;5058173;28;20061;-63
2022/02/09 06:26:56;;;;;;;0.10;0.10;;;7.90;99.90;;;;;;5073308;28;20390;-63
2022/02/09 06:29:23;;;;;;;0.00;0.00;;;7.80;99.90;;;;;;5057652;28;20040;-63
2022/02/09 06:31:50;;;;;;;0.10;0.10;;;7.90;99.90;;;;;;5057628;28;20040;-64
2022/02/09 06:34:18;;;;;;;3.40;1.08;;;7.90;99.90;;;;;;5057460;28;20045;-65
2022/02/09 06:36:51;;;;;;;0.10;0.10;;;7.90;99.90;;;;;;5072640;28;20382;-64
2022/02/09 06:39:19;;;;;;;0.00;0.00;;;8.00;99.90;;;;;;5056640;28;20064;-64
2022/02/09 06:41:45;;;;;;;0.00;0.00;;;8.00;99.90;;;;;;5072792;28;20032;-65
2022/02/09 06:44:12;;;;;;;0.00;0.00;;;8.00;99.90;;;;;;5057369;28;20032;-64
2022/02/09 06:46:39;;;;;;;0.00;0.00;;;8.00;99.90;;;;;;5057710;28;20032;-65
2022/02/09 06:49:08;;;;;;;0.85;0.50;;;7.90;99.90;;;;;;5047874;28;20032;-64
2022/02/09 06:51:37;;;;;;;0.22;0.20;;;7.90;99.90;;;;;;5057666;28;20079;-63
2022/02/09 06:54:15;;;;;;;0.00;0.00;;;7.90;99.90;;;;;;5057889;28;20766;-64
2022/02/09 06:59:31;;;;;;;0.38;0.38;;;7.80;99.90;;;;;;5057527;28;20033;-63
2022/02/09 07:02:07;;;;;;;1.45;0.95;;;7.80;99.90;;;;;;5057351;28;20037;-64
2022/02/09 07:04:37;;;;;;;0.00;0.00;;;7.80;99.90;;;;;;5057532;28;20044;-63
2022/02/09 07:07:05;;;;;;;0.28;0.28;;;7.80;99.90;;;;;;5072105;28;20025;-64
2022/02/09 07:09:31;;;;;;;0.22;0.22;;;7.80;99.90;;;;;;5072944;28;20116;-65
2022/02/09 07:11:57;;;;;;;1.00;1.00;;;7.80;99.90;;;;;;5057485;28;20040;-64
2022/02/09 07:14:26;;;;;;;0.10;0.10;;;7.80;99.90;;;;;;5057687;28;20025;-64
2022/02/09 07:16:57;;;;;;;0.00;0.00;;;7.80;99.90;;;;;;5057531;28;20060;-64
2022/02/09 07:19:23;;;;;;;3.35;0.90;;;7.90;99.90;;;;;;5057398;28;20033;-64
2022/02/09 07:21:49;;;;;;;0.45;0.45;;;7.80;99.90;;;;;;5072916;28;20040;-64
2022/02/09 07:24:18;;;;;;;0.10;0.10;;;7.80;99.90;;;;;;5073020;28;20037;-64
2022/02/09 07:29:16;;;;;;;0.10;0.10;;;7.80;99.90;;;;;;5056904;28;20458;-64
2022/02/09 07:31:43;;;;;;;0.00;0.00;;;7.80;99.90;;;;;;5054190;28;20041;-62
2022/02/09 07:34:10;;;;;;;0.20;0.20;;;7.80;99.90;;;;;;5069142;28;20443;-63
2022/02/09 07:36:38;;;;;;;0.05;0.05;;;7.80;99.90;;;;;;5054260;28;20025;-65
2022/02/09 07:39:07;;;;;;;0.00;0.00;;;7.80;99.90;;;;;;5054492;28;20091;-64
2022/02/09 07:41:35;;;;;;;0.05;0.05;;;7.80;99.90;;;;;;5054160;28;20041;-64
2022/02/09 07:46:52;;;;;;;1.02;0.57;;;7.90;99.90;;;;;;5054266;28;20029;-64
2022/02/09 07:49:36;;;;;;;0.10;0.10;;;7.90;99.90;;;;;;5066018;28;20045;-65
2022/02/09 07:52:08;;;;;;;0.10;0.10;;;7.90;99.90;;;;;;5054116;28;20110;-65
2022/02/09 07:54:34;;;;;;;0.20;0.20;;;7.90;99.90;;;;;;5053899;28;20044;-64
2022/02/09 07:56:59;;;;;;;0.00;0.00;;;7.90;99.90;;;;;;5053751;28;20028;-65
2022/02/09 07:59:25;;;;;;;1.88;1.25;;;7.90;99.90;;;;;;5053627;28;20477;-64
2022/02/09 08:01:52;;;;;;;0.47;0.47;;;7.90;99.90;;;;;;5068840;28;20035;-65
2022/02/09 08:04:18;;;;;;;0.90;0.85;;;7.90;99.90;;;;;;5068864;28;20056;-65
2022/02/09 08:06:46;;;;;;;0.10;0.10;;;8.00;99.90;;;;;;5068884;28;20067;-64
2022/02/09 08:09:30;;;;;;;0.00;0.00;;;8.00;99.90;;;;;;5053520;28;20041;-65
2022/02/09 08:33:32;;;;;;;0.10;0.10;;;8.00;99.90;;;;;;5065931;28;20049;-65
2022/02/09 08:35:58;;;;;;;0.20;0.20;;;8.00;99.90;;;;;;5068602;28;20033;-65
2022/02/09 08:38:28;;;;;;;0.73;0.73;;;8.10;99.90;;;;;;5053172;28;20390;-65
2022/02/09 08:40:55;;;;;;;0.93;0.93;;;8.00;99.90;;;;;;5067999;28;20068;-65
2022/02/09 08:43:21;;;;;;;0.00;0.00;;;8.00;99.90;;;;;;5068792;28;20025;-65
2022/02/09 08:45:47;;;;;;;0.82;0.47;;;8.00;99.90;;;;;;5068468;28;20028;-65
2022/02/09 08:48:13;;;;;;;0.10;0.10;;;8.00;99.90;;;;;;5053012;28;20125;-65
2022/02/09 08:50:39;;;;;;;0.10;0.10;;;8.10;99.90;;;;;;5051468;28;20033;-66
2022/02/09 08:53:05;;;;;;;0.03;0.03;;;8.10;99.90;;;;;;5052942;28;20064;-65
2022/02/09 08:55:34;;;;;;;0.20;0.20;;;8.20;99.90;;;;;;5052953;28;20049;-66
2022/02/09 08:58:02;;;;;;;0.10;0.10;;;8.20;99.90;;;;;;5067640;28;20021;-65
2022/02/09 09:00:32;;;;;;;0.10;0.10;;;8.30;99.90;;;;;;5052774;28;20055;-66
2022/02/09 09:05:41;;;;;;;0.10;0.10;;;8.40;99.90;;;;;;5052245;28;20114;-64
2022/02/09 09:08:37;;;;;;;0.10;0.10;;;8.40;99.90;;;;;;5067744;28;20072;-65
2022/02/09 10:02:57;;;;;;;0.00;0.00;;;9.90;99.90;;;;;;5051654;28;20482;-65
2022/02/09 10:05:51;;;;;;;0.85;0.15;;;10.00;99.90;;;;;;5051590;28;20044;-65
2022/02/09 10:34:25;;;;;;;1.35;1.05;;;12.00;99.90;;;;;;5045743;28;20045;-66
2022/02/09 10:37:00;;;;;;;0.30;0.30;;;12.40;99.90;;;;;;5031658;28;20064;-65
2022/02/09 10:40:04;;;;;;;0.38;0.38;;;11.50;99.90;;;;;;5030308;28;20028;-65
2022/02/09 10:42:47;;;;;;;0.55;0.55;;;11.50;99.90;;;;;;5030691;28;20021;-66
2022/02/09 10:45:48;;;;;;;0.70;0.50;;;11.80;99.90;;;;;;5046266;28;20497;-65
2022/02/09 10:48:37;;;;;;;0.00;0.00;;;12.70;99.90;;;;;;5031539;28;20053;-65
2022/02/09 10:54:18;;;;;;;0.10;0.10;;;13.70;99.90;;;;;;5046543;28;20099;-66
2022/02/09 10:56:49;;;;;;;0.10;0.10;;;13.50;99.90;;;;;;5031391;28;20037;-66
2022/02/09 10:59:19;;;;;;;0.52;0.52;;;12.80;99.90;;;;;;5046377;28;20026;-66
2022/02/09 11:01:45;;;;;;;0.00;0.00;;;12.60;99.90;;;;;;5039306;28;20532;-65
2022/02/09 11:04:12;;;;;;;0.10;0.10;;;13.30;99.90;;;;;;5051836;28;20056;-65
2022/02/09 11:06:41;;;;;;;0.90;0.90;;;13.00;99.90;;;;;;5055174;28;20063;-65
2022/02/09 11:09:13;;;;;;;0.00;0.00;;;13.90;99.90;;;;;;5054918;28;20032;-65
2022/02/09 11:11:41;;;;;;;0.10;0.10;;;13.90;99.90;;;;;;5054647;28;20041;-64
2022/02/09 11:14:16;;;;;;;0.00;0.00;;;13.60;99.90;;;;;;5042214;28;20033;-63
2022/02/09 11:17:39;;;;;;;0.00;0.00;;;14.10;99.90;;;;;;5034981;28;20185;-64
2022/02/09 11:20:09;;;;;;;0.00;0.00;;;14.30;99.90;;;;;;5053746;28;20029;-65
2022/02/09 11:22:44;;;;;;;0.00;0.00;;;14.40;99.90;;;;;;5052571;28;20362;-65
2022/02/09 11:25:22;;;;;;;0.08;0.08;;;14.60;99.90;;;;;;5052778;28;20025;-65
2022/02/09 11:28:35;;;;;;;0.15;0.15;;;15.20;99.90;;;;;;5056896;28;20033;-66
2022/02/09 11:31:13;;;;;;;0.13;0.13;;;14.70;99.90;;;;;;5054199;28;20029;-66
2022/02/09 11:33:57;;;;;;;0.20;0.20;;;15.10;99.90;;;;;;5036384;28;20041;-66
2022/02/09 11:38:57;;;;;;;1.45;0.80;;;14.90;99.90;;;;;;5054290;28;20033;-66
2022/02/09 11:41:34;;;;;;;;;;;14.30;99.90;;;;;;5054483;28;20033;-65
2022/02/09 11:44:10;;;;;;;0.70;0.43;;;14.90;99.90;;;;;;5037418;28;19978;-66
2022/02/09 11:55:01;;;;;;;0.05;0.05;;;14.50;99.90;;;;;;5067032;28;20036;-65
2022/02/09 12:11:36;;;;;;;0.00;0.00;;;14.20;99.90;;;;;;5068683;28;20037;-65
2022/02/09 12:14:17;;;;;;;1.60;1.23;;;14.30;99.90;;;;;;5053692;28;20386;-65
2022/02/09 12:16:49;;;;;;;0.13;0.13;;;13.80;99.90;;;;;;5052614;28;20401;-65
2022/02/09 12:19:29;;;;;;;0.10;0.10;;;15.20;99.90;;;;;;5053630;28;20060;-66
2022/02/09 12:22:14;;;;;;;2.35;1.15;;;16.40;99.90;;;;;;5067403;28;20025;-65
2022/02/09 12:24:43;;;;;;;7.57;1.20;;;15.80;98.90;;;;;;5056556;28;20045;-66
2022/02/09 12:27:15;;;;;;;0.10;0.10;;;15.70;99.40;;;;;;5088584;28;20028;-66
2022/02/09 12:29:44;;;;;;;0.00;0.00;;;15.80;99.90;;;;;;5075649;28;20121;-65
2022/02/09 12:32:16;;;;;;;0.32;0.25;;;15.90;99.20;;;;;;5052990;28;20362;-66
2022/02/09 12:34:58;;;;;;;0.00;0.00;;;15.80;99.70;;;;;;5053286;28;20120;-66
2022/02/09 12:37:33;;;;;;;0.10;0.10;;;16.10;98.90;;;;;;5042289;28;20047;-65
2022/02/09 12:44:01;;;;;;;0.10;0.10;;;15.50;99.90;;;;;;5043615;28;20080;-64
2022/02/09 12:46:41;;;;;;;0.00;0.00;;;15.60;99.90;;;;;;5033266;28;20509;-64
2022/02/09 12:49:13;;;;;;;0.43;0.30;;;16.30;98.70;;;;;;5032223;28;20108;-65
2022/02/09 12:51:42;;;;;;;0.15;0.15;;;15.00;99.90;;;;;;5031842;28;20068;-65
2022/02/09 12:54:11;;;;;;;0.13;0.13;;;14.10;99.90;;;;;;5041090;28;20055;-65
2022/02/09 12:56:44;;;;;;;0.00;0.00;;;14.80;99.90;;;;;;5072582;28;20056;-65
2022/02/09 12:59:16;;;;;;;0.20;0.20;;;14.50;99.90;;;;;;5066494;28;20029;-65
2022/02/09 13:01:54;;;;;;;0.00;0.00;;;14.30;99.90;;;;;;5067849;28;20033;-64
2022/02/09 13:04:38;;;;;;;0.00;0.00;;;14.60;99.90;;;;;;5052747;28;20041;-65
2022/02/09 13:07:24;;;;;;;0.47;0.20;;;14.80;99.90;;;;;;5052730;28;20032;-65
2022/02/09 13:09:53;;;;;;;0.00;0.00;;;15.50;99.90;;;;;;5067787;28;20116;-65
2022/02/09 13:12:27;;;;;;;0.00;0.00;;;14.40;99.90;;;;;;5066368;28;20025;-65
2022/02/09 13:14:58;;;;;;;0.05;0.05;;;15.00;99.90;;;;;;5032714;28;20033;-64
2022/02/09 14:02:57;;;;;;;0.00;0.00;;;15.80;99.50;;;;;;5031736;28;20142;-65
2022/02/09 14:11:45;;;;;;;0.00;0.00;;;15.80;98.40;;;;;;5043032;28;20130;-65
2022/02/09 14:58:26;;;;;;;19.38;4.50;;;15.40;99.20;;;;;;5052582;28;20040;-65
2022/02/09 15:01:11;;;;;;;0.00;0.00;;;15.80;98.90;;;;;;5035034;28;20100;-64
2022/02/09 15:04:00;;;;;;;2.42;0.93;;;15.30;98.70;;;;;;5035152;28;20037;-65
2022/02/09 15:09:19;;;;;;;0.00;0.00;;;15.30;99.70;;;;;;5045624;28;20482;-66
2022/02/09 15:12:00;;;;;;;0.63;0.55;;;15.70;99.00;;;;;;5068372;28;20044;-64
2022/02/09 15:14:47;;;;;;;0.00;0.00;;;15.80;98.80;;;;;;5074923;28;20028;-64
2022/02/09 15:19:55;;;;;;;0.00;0.00;;;15.80;98.40;;;;;;5068942;28;20028;-65
2022/02/09 15:22:22;;;;;;;0.00;0.00;;;16.00;98.40;;;;;;5053221;28;20394;-65
2022/02/09 15:24:50;;;;;;;0.20;0.20;;;16.10;97.50;;;;;;5054717;28;20036;-65
2022/02/09 15:27:19;;;;;;;0.45;0.28;;;15.80;97.70;;;;;;5054445;28;20474;-65
2022/02/09 15:29:49;;;;;;;0.17;0.17;;;15.80;98.00;;;;;;5053572;28;20051;-64
2022/02/09 15:34:48;;;;;;;0.52;0.52;;;15.50;98.60;;;;;;5054116;28;20521;-65
2022/02/09 15:39:51;;;;;;;0.17;0.13;;;15.60;98.50;;;;;;5069341;28;20070;-65
2022/02/09 16:10:10;;;;;;;0.20;0.20;;;15.10;99.30;;;;;;5029792;28;20046;-65
2022/02/09 16:23:39;;;;;;;0.10;0.10;;;14.10;99.90;;;;;;5073342;28;20127;-65
2022/02/09 16:33:11;;;;;;;0.32;0.32;;;13.90;99.90;;;;;;5045491;28;20151;-66
2022/02/09 16:45:10;;;;;;;0.00;0.00;;;12.40;99.90;;;;;;5072950;28;20376;-66
2022/02/09 16:50:08;;;;;;;0.10;0.10;;;11.80;99.90;;;;;;5073062;28;20090;-66
2022/02/09 16:52:46;;;;;;;0.00;0.00;;;11.70;99.90;;;;;;5088495;28;20492;-65
2022/02/09 17:18:51;;;;;;;0.00;0.00;;;11.30;99.90;;;;;;5052406;28;20029;-66
2022/02/09 17:21:20;;;;;;;0.40;0.40;;;11.30;99.90;;;;;;5051681;28;20037;-67
2022/02/09 17:23:48;;;;;;;0.25;0.25;;;11.20;99.90;;;;;;5052464;28;20400;-65
2022/02/09 17:26:15;;;;;;;3.63;1.45;;;11.20;99.90;;;;;;5051808;28;20116;-66
2022/02/09 17:28:43;;;;;;;0.93;0.93;;;11.20;99.90;;;;;;5067610;28;20040;-66
2022/02/09 17:31:28;;;;;;;0.38;0.28;;;11.20;99.90;;;;;;5052067;28;20071;-66
2022/02/09 17:37:06;;;;;;;0.38;0.38;;;11.00;99.90;;;;;;5013895;28;20045;-65
2022/02/09 17:53:30;;;;;;;0.10;0.10;;;10.90;99.90;;;;;;5071442;28;20040;-67
2022/02/09 17:56:06;;;;;;;0.10;0.10;;;10.80;99.90;;;;;;5087512;28;20036;-66
2022/02/09 17:58:40;;;;;;;0.03;0.03;;;10.80;99.90;;;;;;5086049;28;20068;-66
2022/02/09 18:01:07;;;;;;;3.83;1.75;;;10.70;99.90;;;;;;5071754;28;20481;-66
2022/02/09 18:03:33;;;;;;;1.00;0.63;;;10.60;99.90;;;;;;5087275;28;20094;-66
2022/02/09 18:06:13;;;;;;;0.10;0.10;;;10.40;99.90;;;;;;5087134;28;20039;-67
2022/02/09 18:08:49;;;;;;;0.32;0.32;;;10.20;99.90;;;;;;5087436;28;20556;-66
2022/02/09 18:27:47;;;;;;;0.10;0.10;;;9.30;99.90;;;;;;5051118;28;20048;-64
2022/02/09 18:30:22;;;;;;;0.00;0.00;;;9.40;99.90;;;;;;5050861;28;20032;-65
2022/02/09 18:33:08;;;;;;;1.45;1.35;;;9.30;99.90;;;;;;5049998;28;20448;-64
2022/02/09 18:47:24;;;;;;;0.52;0.52;;;9.50;99.90;;;;;;5071170;28;20067;-65
2022/02/09 19:00:07;;;;;;;0.05;0.05;;;9.30;99.90;;;;;;5071129;28;20068;-63
2022/02/09 19:05:44;;;;;;;0.08;0.08;;;9.20;99.90;;;;;;5071157;28;20036;-65
2022/02/09 19:26:58;;;;;;;0.30;0.30;;;8.60;99.90;;;;;;5033287;28;20643;-65
2022/02/09 19:48:23;;;;;;;1.33;1.25;;;8.20;99.90;;;;;;5034168;28;20040;-66
2022/02/09 19:51:06;;;;;;;0.28;0.28;;;8.10;99.90;;;;;;5065733;28;20028;-66
2022/02/09 19:53:55;;;;;;;0.03;0.03;;;8.00;99.90;;;;;;5051852;28;20037;-65
2022/02/09 19:56:23;;;;;;;0.13;0.13;;;7.90;99.90;;;;;;5060328;28;20040;-65
2022/02/09 19:58:57;;;;;;;0.10;0.10;;;7.60;99.90;;;;;;5045505;28;20029;-66
2022/02/09 20:01:26;;;;;;;0.52;0.45;;;7.60;99.90;;;;;;5037095;28;20091;-65
2022/02/09 20:03:52;;;;;;;0.10;0.10;;;7.50;99.90;;;;;;5048272;28;20030;-66
2022/02/09 20:06:17;;;;;;;0.10;0.10;;;7.40;99.90;;;;;;5046436;28;20377;-66
2022/02/09 20:08:44;;;;;;;0.00;0.00;;;7.30;99.90;;;;;;5060105;28;20064;-66
2022/02/09 20:11:15;;;;;;;0.20;0.20;;;7.40;99.90;;;;;;5068085;28;20021;-66
2022/02/09 20:13:41;;;;;;;0.00;0.00;;;7.30;99.90;;;;;;5052308;28;20037;-65
2022/02/09 20:16:07;;;;;;;0.32;0.32;;;7.30;99.90;;;;;;5068214;28;20405;-65
2022/02/09 20:18:33;;;;;;;2.08;1.30;;;7.30;99.90;;;;;;5053094;28;20532;-66
2022/02/09 20:21:00;;;;;;;2.17;0.47;;;7.30;99.90;;;;;;5068733;28;20028;-66
2022/02/09 20:23:27;;;;;;;0.38;0.38;;;7.40;99.90;;;;;;5053472;28;20190;-66
2022/02/09 20:25:53;;;;;;;0.13;0.13;;;7.30;99.90;;;;;;5053254;28;20398;-68
2022/02/09 20:28:21;;;;;;;0.10;0.10;;;7.30;99.90;;;;;;5053141;28;20040;-66
2022/02/09 20:30:54;;;;;;;0.10;0.10;;;7.30;99.90;;;;;;5068530;28;20033;-66
2022/02/09 20:33:24;;;;;;;0.13;0.13;;;7.30;99.90;;;;;;5051526;28;20052;-66
2022/02/09 20:35:51;;;;;;;0.10;0.10;;;7.40;99.90;;;;;;5053389;28;20056;-67
2022/02/09 20:38:23;;;;;;;0.57;0.57;;;7.30;99.90;;;;;;5067620;28;20342;-66
2022/02/09 20:40:56;;;;;;;0.20;0.20;;;7.30;99.90;;;;;;5053272;28;20029;-66
2022/02/09 20:43:24;;;;;;;0.43;0.43;;;7.30;99.90;;;;;;5067265;28;20037;-65
2022/02/09 20:45:55;;;;;;;0.73;0.73;;;7.30;99.90;;;;;;5051989;28;20040;-65
2022/02/09 20:48:27;;;;;;;0.10;0.10;;;7.30;99.90;;;;;;5067643;28;20035;-66
2022/02/09 20:50:59;;;;;;;0.10;0.10;;;7.30;99.90;;;;;;5052714;28;20056;-65
2022/02/09 20:53:25;;;;;;;0.00;0.00;;;7.30;99.90;;;;;;5052984;28;20045;-65
2022/02/09 20:55:52;;;;;;;1.08;0.80;;;7.20;99.90;;;;;;5068451;28;20051;-65
2022/02/09 20:58:20;;;;;;;0.00;0.00;;;7.30;99.90;;;;;;5053008;28;20029;-66
2022/02/09 21:09:02;;;;;;;0.25;0.25;;;7.10;99.90;;;;;;5052653;28;20029;-65
2022/02/09 21:17:23;;;;;;;5.28;1.65;;;7.00;99.90;;;;;;5032910;28;20051;-66
2022/02/09 21:50:13;;;;;;;0.30;0.25;;;6.80;99.90;;;;;;5052133;28;20044;-66
2022/02/09 21:54:47;;;;;;;0.17;0.17;;;6.70;99.90;;;;;;5066431;28;20060;-66
2022/02/09 22:00:17;;;;;;;0.10;0.10;;;6.60;99.90;;;;;;5052067;28;20025;-66
2022/02/09 22:16:51;;;;;;;0.52;0.52;;;6.60;99.90;;;;;;5051388;28;20086;-66
2022/02/09 22:27:36;;;;;;;0.28;0.28;;;6.70;99.90;;;;;;5051730;28;20428;-65
2022/02/09 22:46:59;;;;;;;0.45;0.45;;;6.60;99.90;;;;;;5051136;28;20036;-65
2022/02/09 22:56:54;;;;;;;0.10;0.10;;;6.50;99.90;;;;;;5051198;28;20062;-65
2022/02/09 23:01:56;;;;;;;0.10;0.10;;;6.50;99.90;;;;;;5054417;28;20032;-65
2022/02/09 23:07:59;;;;;;;0.15;0.15;;;6.50;99.90;;;;;;5055193;28;20086;-65
